createdAt,value
2018-04-09T00:02:24.203Z,11.30
2018-04-09T00:04:55.241Z,11.07
2018-04-09T00:07:26.204Z,11.10
2018-04-09T00:09:57.221Z,11.30
2018-04-09T00:12:28.221Z,11.70
2018-04-09T00:14:59.213Z,10.00
2018-04-09T00:17:30.223Z,11.33
2018-04-09T00:20:01.179Z,10.77
2018-04-09T00:22:32.161Z,10.73
2018-04-09T00:25:03.126Z,10.30
2018-04-09T00:27:34.128Z,12.00
2018-04-09T00:30:05.132Z,10.97
2018-04-09T00:32:36.154Z,10.37
2018-04-09T00:35:07.173Z,10.57
2018-04-09T00:37:38.151Z,11.63
2018-04-09T00:40:09.153Z,10.33
2018-04-09T00:42:40.134Z,10.87
2018-04-09T00:45:11.166Z,11.00
2018-04-09T00:47:42.136Z,11.10
2018-04-09T00:50:13.125Z,10.83
2018-04-09T00:52:44.096Z,11.30
2018-04-09T00:55:15.035Z,12.30
2018-04-09T00:57:46.092Z,11.63
2018-04-09T01:00:17.054Z,11.77
2018-04-09T01:02:48.059Z,11.83
2018-04-09T01:05:19.099Z,11.67
2018-04-09T01:07:50.101Z,12.10
2018-04-09T01:10:21.115Z,12.60
2018-04-09T01:12:52.090Z,12.73
2018-04-09T01:15:23.072Z,12.90
2018-04-09T01:17:54.024Z,13.30
2018-04-09T01:20:25.009Z,12.73
2018-04-09T01:22:55.985Z,13.80
2018-04-09T01:25:26.956Z,12.70
2018-04-09T01:27:57.916Z,13.00
2018-04-09T01:30:28.978Z,16.57
2018-04-09T01:32:59.924Z,13.90
2018-04-09T01:35:30.927Z,13.30
2018-04-09T01:38:01.920Z,12.20
2018-04-09T01:40:32.891Z,12.33
2018-04-09T01:43:03.880Z,13.17
2018-04-09T01:45:34.931Z,13.10
2018-04-09T01:48:05.969Z,13.10
2018-04-09T01:50:36.928Z,12.47
2018-04-09T01:53:07.937Z,12.97
2018-04-09T01:55:38.915Z,12.63
2018-04-09T01:58:09.875Z,13.53
2018-04-09T02:00:40.877Z,12.93
2018-04-09T02:03:11.890Z,14.87
2018-04-09T02:05:42.895Z,14.10
2018-04-09T02:08:13.913Z,14.30
2018-04-09T02:10:44.945Z,14.17
2018-04-09T02:13:15.945Z,14.53
2018-04-09T02:15:46.958Z,14.30
2018-04-09T02:18:17.949Z,14.63
2018-04-09T02:20:48.935Z,14.57
2018-04-09T02:23:19.977Z,14.07
2018-04-09T02:25:50.986Z,15.00
2018-04-09T02:28:21.967Z,14.57
2018-04-09T02:30:52.908Z,14.67
2018-04-09T02:33:23.880Z,13.57
2018-04-09T02:35:54.865Z,14.17
2018-04-09T02:38:25.844Z,14.80
2018-04-09T02:40:56.881Z,14.33
2018-04-09T02:43:27.917Z,13.33
2018-04-09T02:45:58.938Z,14.87
2018-04-09T02:48:29.939Z,14.97
2018-04-09T02:51:00.926Z,14.20
2018-04-09T02:53:31.891Z,15.20
2018-04-09T02:56:02.986Z,16.60
2018-04-09T02:58:33.980Z,15.23
2018-04-09T03:01:04.973Z,14.53
2018-04-09T03:03:36.003Z,14.50
2018-04-09T03:06:07.074Z,15.27
2018-04-09T03:08:38.023Z,14.53
2018-04-09T03:11:09.012Z,14.07
2018-04-09T03:13:40.013Z,14.13
2018-04-09T03:16:10.994Z,13.90
2018-04-09T03:18:41.984Z,14.33
2018-04-09T03:21:12.980Z,13.60
2018-04-09T03:23:43.957Z,14.10
2018-04-09T03:26:14.968Z,15.00
2018-04-09T03:28:45.999Z,14.93
2018-04-09T03:31:16.992Z,15.27
2018-04-09T03:33:48.022Z,14.60
2018-04-09T03:36:18.999Z,14.97
2018-04-09T03:38:49.989Z,14.90
2018-04-09T03:41:20.991Z,14.90
2018-04-09T03:43:51.991Z,16.47
2018-04-09T03:46:22.964Z,14.90
2018-04-09T03:48:53.951Z,17.43
2018-04-09T03:51:24.955Z,15.20
2018-04-09T03:53:55.959Z,14.70
2018-04-09T03:56:26.965Z,15.60
2018-04-09T03:58:57.944Z,14.57
2018-04-09T04:01:28.919Z,14.80
2018-04-09T04:03:59.925Z,14.10
2018-04-09T04:06:30.954Z,15.60
2018-04-09T04:09:02.000Z,13.87
2018-04-09T04:11:33.080Z,16.27
2018-04-09T04:14:04.055Z,17.73
2018-04-09T04:16:47.467Z,16.67
2018-04-09T04:19:30.672Z,16.10
2018-04-09T04:22:01.708Z,15.67
2018-04-09T04:24:32.692Z,15.17
2018-04-09T04:27:03.747Z,15.50
2018-04-09T04:29:34.751Z,16.40
2018-04-09T04:32:05.782Z,16.67
2018-04-09T04:34:36.803Z,17.93
2018-04-09T04:37:07.872Z,17.80
2018-04-09T04:39:38.849Z,17.13
2018-04-09T04:42:09.851Z,17.43
2018-04-09T04:44:40.865Z,16.83
2018-04-09T04:47:11.854Z,18.27
2018-04-09T04:49:42.880Z,17.93
2018-04-09T04:52:13.905Z,18.50
2018-04-09T04:54:44.924Z,19.43
2018-04-09T04:57:15.904Z,18.23
2018-04-09T04:59:46.882Z,17.27
2018-04-09T05:02:17.859Z,18.17
2018-04-09T05:04:48.881Z,17.80
2018-04-09T05:07:19.839Z,17.63
2018-04-09T05:09:50.844Z,17.60
2018-04-09T05:12:21.816Z,16.87
2018-04-09T05:14:52.823Z,16.53
2018-04-09T05:17:23.789Z,18.23
2018-04-09T05:19:54.760Z,16.30
2018-04-09T05:22:25.723Z,17.30
2018-04-09T05:24:56.687Z,17.10
2018-04-09T05:27:27.677Z,17.47
2018-04-09T05:29:58.682Z,17.17
2018-04-09T05:32:29.655Z,18.63
2018-04-09T05:35:00.677Z,16.80
2018-04-09T05:37:31.706Z,19.03
2018-04-09T05:40:02.730Z,28.17
2018-04-09T05:42:33.747Z,21.17
2018-04-09T05:45:04.769Z,19.10
2018-04-09T05:47:35.806Z,17.63
2018-04-09T05:50:06.854Z,18.73
2018-04-09T05:52:37.863Z,18.67
2018-04-09T05:55:08.878Z,17.40
2018-04-09T05:57:39.887Z,17.97
2018-04-09T06:00:10.926Z,18.50
2018-04-09T06:02:41.908Z,17.90
2018-04-09T06:05:12.917Z,20.03
2018-04-09T06:07:43.953Z,18.17
2018-04-09T06:10:14.969Z,20.00
2018-04-09T06:12:45.981Z,19.20
2018-04-09T06:15:16.978Z,18.57
2018-04-09T06:17:47.986Z,19.33
2018-04-09T06:20:18.971Z,19.87
2018-04-09T06:22:49.987Z,19.60
2018-04-09T06:25:20.976Z,18.47
2018-04-09T06:27:52.018Z,19.43
2018-04-09T06:30:22.971Z,18.70
2018-04-09T06:32:53.972Z,18.30
2018-04-09T06:35:24.947Z,18.87
2018-04-09T06:37:55.955Z,18.67
2018-04-09T06:40:26.993Z,19.43
2018-04-09T06:42:57.980Z,18.37
2018-04-09T06:45:29.047Z,18.83
2018-04-09T06:48:00.016Z,18.77
2018-04-09T06:50:31.073Z,19.13
2018-04-09T06:53:02.025Z,18.93
2018-04-09T06:55:33.058Z,21.57
2018-04-09T06:58:04.111Z,19.33
2018-04-09T07:00:35.157Z,18.43
2018-04-09T07:03:06.120Z,16.67
2018-04-09T07:05:37.072Z,17.60
2018-04-09T07:08:08.084Z,17.87
2018-04-09T07:10:39.047Z,16.80
2018-04-09T07:13:10.028Z,17.43
2018-04-09T07:15:41.028Z,19.53
2018-04-09T07:18:11.984Z,17.40
2018-04-09T07:20:42.989Z,18.20
2018-04-09T07:23:14.059Z,17.50
2018-04-09T07:25:45.044Z,17.97
2018-04-09T07:28:16.046Z,17.10
2018-04-09T07:30:47.031Z,18.40
2018-04-09T07:33:17.989Z,18.30
2018-04-09T07:35:48.975Z,19.30
2018-04-09T07:38:20.011Z,20.10
2018-04-09T07:40:50.977Z,18.10
2018-04-09T07:43:21.948Z,17.90
2018-04-09T07:45:52.903Z,19.03
2018-04-09T07:48:23.902Z,18.30
2018-04-09T07:50:54.907Z,17.30
2018-04-09T07:53:25.893Z,17.93
2018-04-09T07:55:56.848Z,18.30
2018-04-09T07:58:27.791Z,18.53
2018-04-09T08:00:59.027Z,18.27
2018-04-09T08:03:30.048Z,17.77
2018-04-09T08:06:01.055Z,18.07
2018-04-09T08:08:32.065Z,17.53
2018-04-09T08:11:03.035Z,18.10
2018-04-09T08:13:34.016Z,16.97
2018-04-09T08:16:05.003Z,18.43
2018-04-09T08:18:35.979Z,17.83
2018-04-09T08:21:06.936Z,17.40
2018-04-09T08:23:37.927Z,17.87
2018-04-09T08:26:08.932Z,18.20
2018-04-09T08:28:39.920Z,17.33
2018-04-09T08:31:10.939Z,18.53
2018-04-09T08:33:41.913Z,17.53
2018-04-09T08:36:12.892Z,26.77
2018-04-09T08:38:43.871Z,17.73
2018-04-09T08:41:14.872Z,17.77
2018-04-09T08:43:45.839Z,17.65
2018-04-09T08:46:16.815Z,18.05
2018-04-09T08:48:47.845Z,18.10
2018-04-09T08:51:18.876Z,19.42
2018-04-09T08:53:49.905Z,18.33
2018-04-09T08:56:20.890Z,19.43
2018-04-09T08:58:51.881Z,18.73
2018-04-09T09:01:22.803Z,19.10
2018-04-09T09:03:53.795Z,18.00
2018-04-09T09:06:24.784Z,18.83
2018-04-09T09:08:55.754Z,17.97
2018-04-09T09:11:26.747Z,19.03
2018-04-09T09:13:57.733Z,19.70
2018-04-09T09:16:28.688Z,18.47
2018-04-09T09:18:59.675Z,18.23
2018-04-09T09:21:30.675Z,18.63
2018-04-09T09:24:01.672Z,20.10
2018-04-09T09:26:32.628Z,19.47
2018-04-09T09:29:03.612Z,20.93
2018-04-09T09:31:34.619Z,18.80
2018-04-09T09:34:05.587Z,18.57
2018-04-09T09:36:36.580Z,19.07
2018-04-09T09:39:07.524Z,18.83
2018-04-09T09:41:38.523Z,18.67
2018-04-09T09:44:09.491Z,18.40
2018-04-09T09:46:40.523Z,17.93
2018-04-09T09:49:11.530Z,19.07
2018-04-09T09:51:42.934Z,17.57
2018-04-09T09:54:13.922Z,19.20
2018-04-09T09:56:44.936Z,19.00
2018-04-09T09:59:15.945Z,17.83
2018-04-09T10:01:46.991Z,18.10
2018-04-09T10:04:20.096Z,19.43
2018-04-09T10:06:51.033Z,17.83
2018-04-09T10:09:22.068Z,17.70
2018-04-09T10:11:53.045Z,16.80
2018-04-09T10:14:24.018Z,17.57
2018-04-09T10:16:55.017Z,17.33
2018-04-09T10:19:26.056Z,17.37
2018-04-09T10:21:57.060Z,17.40
2018-04-09T10:24:28.069Z,16.80
2018-04-09T10:26:59.047Z,17.33
2018-04-09T10:29:30.043Z,17.10
2018-04-09T10:32:01.089Z,17.67
2018-04-09T10:34:32.096Z,16.07
2018-04-09T10:37:03.082Z,17.83
2018-04-09T10:39:34.087Z,15.50
2018-04-09T10:42:05.141Z,15.30
2018-04-09T10:44:36.121Z,15.88
2018-04-09T10:47:07.124Z,15.02
2018-04-09T10:49:38.186Z,14.63
2018-04-09T10:52:09.212Z,15.13
2018-04-09T10:54:40.197Z,15.32
2018-04-09T10:57:11.187Z,14.90
2018-04-09T10:59:42.191Z,13.20
2018-04-09T11:02:13.178Z,13.70
2018-04-09T11:04:44.197Z,14.25
2018-04-09T11:07:15.190Z,14.13
2018-04-09T11:09:46.227Z,13.68
2018-04-09T11:12:17.223Z,13.20
2018-04-09T11:14:48.248Z,13.77
2018-04-09T11:17:19.279Z,12.93
2018-04-09T11:19:50.267Z,11.93
2018-04-09T11:22:21.322Z,11.77
2018-04-09T11:24:52.291Z,10.70
2018-04-09T11:27:23.264Z,10.60
2018-04-09T11:29:54.240Z,10.93
2018-04-09T11:32:25.281Z,11.27
2018-04-09T11:34:56.234Z,11.70
2018-04-09T11:37:27.288Z,12.33
2018-04-09T11:39:58.282Z,11.77
2018-04-09T11:42:29.300Z,11.40
2018-04-09T11:45:00.254Z,11.40
2018-04-09T11:47:31.239Z,10.63
2018-04-09T11:50:02.266Z,10.33
2018-04-09T11:52:33.239Z,10.33
2018-04-09T11:55:04.272Z,9.93
2018-04-09T11:57:35.254Z,10.00
2018-04-09T12:00:06.261Z,10.50
2018-04-09T12:02:37.283Z,10.80
2018-04-09T12:05:08.226Z,10.13
2018-04-09T12:07:39.245Z,10.43
2018-04-09T12:10:10.247Z,10.30
2018-04-09T12:12:41.256Z,10.10
2018-04-09T12:15:12.198Z,9.67
2018-04-09T12:17:43.221Z,9.40
2018-04-09T12:20:14.192Z,10.17
2018-04-09T12:22:45.217Z,9.47
2018-04-09T12:25:16.222Z,9.77
2018-04-09T12:27:47.203Z,9.77
2018-04-09T12:30:18.215Z,10.43
2018-04-09T12:32:49.227Z,10.03
2018-04-09T12:35:20.182Z,9.43
2018-04-09T12:37:51.210Z,9.70
2018-04-09T12:40:22.178Z,9.50
2018-04-09T12:42:53.184Z,8.93
2018-04-09T12:45:24.156Z,9.73
2018-04-09T12:47:55.148Z,9.43
2018-04-09T12:50:26.091Z,9.90
2018-04-09T12:52:57.098Z,8.70
2018-04-09T12:55:28.127Z,8.83
2018-04-09T12:57:59.111Z,8.53
2018-04-09T13:00:30.156Z,8.57
2018-04-09T13:03:01.146Z,8.33
2018-04-09T13:05:32.139Z,8.47
2018-04-09T13:08:03.167Z,8.83
2018-04-09T13:10:34.160Z,9.60
2018-04-09T13:13:05.174Z,9.03
2018-04-09T13:15:36.166Z,9.17
2018-04-09T13:18:07.178Z,9.20
2018-04-09T13:20:38.183Z,8.87
2018-04-09T13:23:09.137Z,9.10
2018-04-09T13:25:40.118Z,8.63
2018-04-09T13:28:11.125Z,8.00
2018-04-09T13:30:42.148Z,8.30
2018-04-09T13:33:13.140Z,9.23
2018-04-09T13:35:44.111Z,8.37
2018-04-09T13:38:15.135Z,7.63
2018-04-09T13:40:46.086Z,7.03
2018-04-09T13:43:17.086Z,7.17
2018-04-09T13:45:48.055Z,6.70
2018-04-09T13:48:19.034Z,7.23
2018-04-09T13:50:50.039Z,6.60
2018-04-09T13:53:21.077Z,6.43
2018-04-09T13:55:52.093Z,6.40
2018-04-09T13:58:23.124Z,6.43
2018-04-09T14:00:54.073Z,6.23
2018-04-09T14:03:25.080Z,5.83
2018-04-09T14:05:56.116Z,5.77
2018-04-09T14:08:27.095Z,6.03
2018-04-09T14:10:58.107Z,6.47
2018-04-09T14:13:29.089Z,6.13
2018-04-09T14:16:00.075Z,6.27
2018-04-09T14:18:31.049Z,7.43
2018-04-09T14:21:02.082Z,6.20
2018-04-09T14:23:33.087Z,6.73
2018-04-09T14:26:04.075Z,6.57
2018-04-09T14:28:35.081Z,6.60
2018-04-09T14:31:06.133Z,6.37
2018-04-09T14:33:37.154Z,7.53
2018-04-09T14:36:08.147Z,7.03
2018-04-09T14:38:39.111Z,7.27
2018-04-09T14:41:10.124Z,7.13
2018-04-09T14:43:41.144Z,7.70
2018-04-09T14:46:12.150Z,8.97
2018-04-09T14:48:43.135Z,6.80
2018-04-09T14:51:14.151Z,7.57
2018-04-09T14:53:45.119Z,6.43
2018-04-09T14:56:16.111Z,7.93
2018-04-09T14:58:47.083Z,9.27
2018-04-09T15:01:18.107Z,8.50
2018-04-09T15:03:49.099Z,9.13
2018-04-09T15:06:20.167Z,9.23
2018-04-09T15:08:51.157Z,9.63
2018-04-09T15:11:22.163Z,9.73
2018-04-09T15:13:53.171Z,8.97
2018-04-09T15:16:24.197Z,8.97
2018-04-09T15:18:55.172Z,8.80
2018-04-09T15:21:26.194Z,8.73
2018-04-09T15:23:57.130Z,8.13
2018-04-09T15:26:28.126Z,9.93
2018-04-09T15:28:59.159Z,8.27
2018-04-09T15:31:30.130Z,9.33
2018-04-09T15:34:01.139Z,8.97
2018-04-09T15:36:32.156Z,8.70
2018-04-09T15:39:03.241Z,8.80
2018-04-09T15:41:34.201Z,8.43
2018-04-09T15:44:05.237Z,8.47
2018-04-09T15:46:36.254Z,8.23
2018-04-09T15:49:07.223Z,7.40
2018-04-09T15:51:38.475Z,7.40
2018-04-09T15:54:09.436Z,7.30
2018-04-09T15:56:40.435Z,7.27
2018-04-09T15:59:11.395Z,7.47
2018-04-09T16:01:42.444Z,7.80
2018-04-09T16:04:13.445Z,6.27
2018-04-09T16:06:44.500Z,6.93
2018-04-09T16:09:15.478Z,6.83
2018-04-09T16:11:46.496Z,7.43
2018-04-09T16:14:17.481Z,6.83
2018-04-09T16:16:48.479Z,7.17
2018-04-09T16:19:19.554Z,7.63
2018-04-09T16:21:50.518Z,9.93
2018-04-09T16:24:21.537Z,7.73
2018-04-09T16:26:52.531Z,7.87
2018-04-09T16:29:23.497Z,7.17
2018-04-09T16:31:54.446Z,7.40
2018-04-09T16:34:25.442Z,7.37
2018-04-09T16:36:56.414Z,7.30
2018-04-09T16:39:27.456Z,7.37
2018-04-09T16:41:58.479Z,7.30
2018-04-09T16:44:29.509Z,7.47
2018-04-09T16:47:00.494Z,7.50
2018-04-09T16:49:31.519Z,7.17
2018-04-09T16:52:02.610Z,7.70
2018-04-09T16:54:33.581Z,7.20
2018-04-09T16:57:04.605Z,6.97
2018-04-09T16:59:35.659Z,6.53
2018-04-09T17:02:06.705Z,7.80
2018-04-09T17:04:37.726Z,6.77
2018-04-09T17:07:08.716Z,6.90
2018-04-09T17:09:39.742Z,6.47
2018-04-09T17:12:10.821Z,6.37
2018-04-09T17:14:41.845Z,6.13
2018-04-09T17:17:12.868Z,5.83
2018-04-09T17:19:43.912Z,7.23
2018-04-09T17:22:14.911Z,5.87
2018-04-09T17:24:45.951Z,6.57
2018-04-09T17:27:16.958Z,5.70
2018-04-09T17:29:48.010Z,6.60
2018-04-09T17:32:18.985Z,5.60
2018-04-09T17:34:50.007Z,6.47
2018-04-09T17:37:21.000Z,5.77
2018-04-09T17:39:52.001Z,6.37
2018-04-09T17:42:23.013Z,6.50
2018-04-09T17:44:54.000Z,5.93
2018-04-09T17:47:25.060Z,6.20
2018-04-09T17:49:56.016Z,6.40
2018-04-09T17:52:27.025Z,5.90
2018-04-09T17:54:58.003Z,5.93
2018-04-09T17:57:29.008Z,5.83
2018-04-09T18:00:00.022Z,6.17
2018-04-09T18:02:31.099Z,6.67
2018-04-09T18:05:02.049Z,6.13
2018-04-09T18:07:33.069Z,6.10
2018-04-09T18:10:04.033Z,5.83
2018-04-09T18:12:35.023Z,6.17
2018-04-09T18:15:06.055Z,7.17
2018-04-09T18:17:37.059Z,6.70
2018-04-09T18:20:08.066Z,6.40
2018-04-09T18:22:39.045Z,6.30
2018-04-09T18:25:10.055Z,6.43
2018-04-09T18:27:41.016Z,6.43
2018-04-09T18:30:12.009Z,7.40
2018-04-09T18:32:42.996Z,8.00
2018-04-09T18:35:14.025Z,7.33
2018-04-09T18:37:44.969Z,7.37
2018-04-09T18:40:15.982Z,7.90
2018-04-09T18:42:46.969Z,7.33
2018-04-09T18:45:17.989Z,7.87
2018-04-09T18:47:49.008Z,7.27
2018-04-09T18:50:19.988Z,7.33
2018-04-09T18:52:51.027Z,8.13
2018-04-09T18:55:22.077Z,7.80
2018-04-09T18:57:53.061Z,7.57
2018-04-09T19:00:24.031Z,8.37
2018-04-09T19:02:55.084Z,7.77
2018-04-09T19:05:26.093Z,8.57
2018-04-09T19:07:57.045Z,8.77
2018-04-09T19:10:28.062Z,7.30
2018-04-09T19:12:59.071Z,6.97
2018-04-09T19:15:30.043Z,7.10
2018-04-09T19:18:01.042Z,7.73
2018-04-09T19:20:32.032Z,8.07
2018-04-09T19:23:03.052Z,8.23
2018-04-09T19:25:34.050Z,7.83
2018-04-09T19:28:05.038Z,8.57
2018-04-09T19:30:36.087Z,8.43
2018-04-09T19:33:07.075Z,7.07
2018-04-09T19:35:44.294Z,7.50
2018-04-09T19:38:21.527Z,6.67
2018-04-09T19:40:52.538Z,6.53
2018-04-09T19:43:23.672Z,6.60
2018-04-09T19:45:54.659Z,6.97
2018-04-09T19:48:25.695Z,7.43
2018-04-09T19:50:56.665Z,6.40
2018-04-09T19:53:27.722Z,6.67
2018-04-09T19:55:58.713Z,7.77
2018-04-09T19:58:29.717Z,8.07
2018-04-09T20:01:00.762Z,7.27
2018-04-09T20:03:31.826Z,7.07
2018-04-09T20:06:02.783Z,6.37
2018-04-09T20:08:33.776Z,6.87
2018-04-09T20:11:04.785Z,7.23
2018-04-09T20:13:35.818Z,7.43
2018-04-09T20:16:06.829Z,8.30
2018-04-09T20:18:37.869Z,7.10
2018-04-09T20:21:08.883Z,7.30
2018-04-09T20:23:39.922Z,7.20
2018-04-09T20:26:10.909Z,7.07
2018-04-09T20:28:41.895Z,6.77
2018-04-09T20:31:12.878Z,8.20
2018-04-09T20:33:43.850Z,7.53
2018-04-09T20:36:14.904Z,8.33
2018-04-09T20:38:45.956Z,7.13
2018-04-09T20:41:16.935Z,7.13
2018-04-09T20:43:47.943Z,7.23
2018-04-09T20:46:18.947Z,6.87
2018-04-09T20:48:49.948Z,6.73
2018-04-09T20:51:20.968Z,6.90
2018-04-09T20:53:52.002Z,6.70
2018-04-09T20:56:23.009Z,6.73
2018-04-09T20:58:53.984Z,6.57
2018-04-09T21:01:24.967Z,7.20
2018-04-09T21:03:55.964Z,7.10
2018-04-09T21:06:27.019Z,7.27
2018-04-09T21:08:58.010Z,7.17
2018-04-09T21:11:29.025Z,7.23
2018-04-09T21:13:59.978Z,6.67
2018-04-09T21:16:30.957Z,7.13
2018-04-09T21:19:01.967Z,7.80
2018-04-09T21:21:32.954Z,7.83
2018-04-09T21:24:04.411Z,7.10
2018-04-09T21:26:35.433Z,7.33
2018-04-09T21:29:06.437Z,7.13
2018-04-09T21:31:37.412Z,7.93
2018-04-09T21:34:08.379Z,7.13
2018-04-09T21:36:39.371Z,6.80
2018-04-09T21:39:10.399Z,7.83
2018-04-09T21:41:41.405Z,7.43
2018-04-09T21:44:12.454Z,7.67
2018-04-09T21:46:43.452Z,7.30
2018-04-09T21:49:14.421Z,7.80
2018-04-09T21:51:45.466Z,8.10
2018-04-09T21:54:16.429Z,7.93
2018-04-09T21:56:47.411Z,8.70
2018-04-09T21:59:18.385Z,8.33
2018-04-09T22:01:49.363Z,7.93
2018-04-09T22:04:20.363Z,7.23
2018-04-09T22:06:51.383Z,7.73
2018-04-09T22:09:22.438Z,7.50
2018-04-09T22:11:53.424Z,7.33
2018-04-09T22:14:24.422Z,7.50
2018-04-09T22:16:55.385Z,7.53
2018-04-09T22:19:26.364Z,7.77
2018-04-09T22:21:57.373Z,11.23
2018-04-09T22:24:28.382Z,10.60
2018-04-09T22:26:59.389Z,8.37
2018-04-09T22:29:30.396Z,7.80
2018-04-09T22:32:01.396Z,7.20
2018-04-09T22:34:32.392Z,8.63
2018-04-09T22:37:03.342Z,8.03
2018-04-09T22:39:34.379Z,7.83
2018-04-09T22:42:05.421Z,7.80
2018-04-09T22:44:36.465Z,7.93
2018-04-09T22:47:07.452Z,8.20
2018-04-09T22:49:38.453Z,7.70
2018-04-09T22:52:09.412Z,7.57
2018-04-09T22:54:40.445Z,7.47
2018-04-09T22:57:11.472Z,7.50
2018-04-09T22:59:42.534Z,8.10
2018-04-09T23:02:13.524Z,7.80
2018-04-09T23:04:44.549Z,7.80
2018-04-09T23:07:15.554Z,8.77
2018-04-09T23:09:46.620Z,7.83
2018-04-09T23:12:17.616Z,7.70
2018-04-09T23:14:48.611Z,8.03
2018-04-09T23:17:19.595Z,8.20
2018-04-09T23:19:50.613Z,7.80
2018-04-09T23:22:33.796Z,8.83
2018-04-09T23:25:04.829Z,8.17
2018-04-09T23:27:35.803Z,7.63
2018-04-09T23:30:06.814Z,7.83
2018-04-09T23:32:37.836Z,8.13
2018-04-09T23:35:08.828Z,7.50
2018-04-09T23:37:39.862Z,8.63
2018-04-09T23:40:10.821Z,8.17
2018-04-09T23:42:41.845Z,8.53
2018-04-09T23:45:12.822Z,8.57
2018-04-09T23:47:43.819Z,8.70
2018-04-09T23:50:14.810Z,8.23
2018-04-09T23:52:45.811Z,9.23
2018-04-09T23:55:16.808Z,8.50
2018-04-09T23:57:47.789Z,8.60
